createdAt,value
2018-11-21T00:00:09.713Z,21.00
2018-11-21T00:02:38.024Z,21.00
2018-11-21T00:05:25.929Z,17.40
2018-11-21T00:08:14.697Z,18.27
2018-11-21T00:11:02.893Z,17.60
2018-11-21T00:13:50.636Z,18.27
2018-11-21T00:21:48.825Z,19.13
2018-11-21T00:24:36.435Z,18.50
2018-11-21T00:27:24.313Z,17.50
2018-11-21T00:30:13.859Z,18.30
2018-11-21T00:33:01.881Z,17.40
2018-11-21T00:35:30.514Z,17.53
2018-11-21T00:38:18.763Z,18.07
2018-11-21T00:40:47.235Z,17.60
2018-11-21T00:43:36.079Z,18.97
2018-11-21T00:46:16.772Z,19.43
2018-11-21T00:48:57.517Z,17.07
2018-11-21T00:51:38.495Z,17.10
2018-11-21T00:54:19.943Z,16.43
2018-11-21T00:57:00.956Z,17.83
2018-11-21T00:59:41.577Z,16.73
2018-11-21T01:02:22.221Z,18.83
2018-11-21T01:05:03.385Z,18.23
2018-11-21T01:07:31.816Z,18.13
2018-11-21T01:10:19.906Z,17.90
2018-11-21T01:13:07.641Z,16.30
2018-11-21T01:15:55.625Z,16.73
2018-11-21T01:18:24.115Z,18.17
2018-11-21T01:21:11.964Z,18.43
2018-11-21T01:23:59.682Z,17.40
2018-11-21T01:26:28.266Z,17.87
2018-11-21T01:31:46.460Z,18.60
2018-11-21T01:34:14.997Z,18.17
2018-11-21T01:36:43.483Z,18.33
2018-11-21T01:39:31.391Z,17.77
2018-11-21T01:41:59.817Z,18.50
2018-11-21T01:44:47.639Z,18.77
2018-11-21T01:47:35.454Z,17.03
2018-11-21T01:50:04.205Z,17.77
2018-11-21T01:52:51.972Z,19.47
2018-11-21T01:55:39.732Z,19.17
2018-11-21T02:04:22.614Z,19.90
2018-11-21T02:07:10.686Z,20.17
2018-11-21T02:09:39.054Z,19.30
2018-11-21T02:12:26.879Z,20.17
2018-11-21T02:15:14.975Z,19.63
2018-11-21T02:18:02.954Z,19.00
2018-11-21T02:20:50.989Z,20.00
2018-11-21T02:23:19.393Z,18.63
2018-11-21T02:25:47.890Z,20.13
2018-11-21T02:31:32.057Z,20.93
2018-11-21T02:34:19.824Z,21.37
2018-11-21T02:37:07.567Z,21.37
2018-11-21T02:39:55.348Z,22.40
2018-11-21T02:42:43.204Z,21.50
2018-11-21T02:45:31.012Z,21.63
2018-11-21T02:48:18.866Z,20.83
2018-11-21T02:51:06.918Z,22.93
2018-11-21T02:53:54.706Z,23.13
2018-11-21T02:56:42.559Z,22.93
2018-11-21T02:59:30.386Z,23.07
2018-11-21T03:02:18.252Z,22.90
2018-11-21T03:05:06.164Z,21.57
2018-11-21T03:07:34.770Z,22.87
2018-11-21T03:10:03.208Z,22.67
2018-11-21T03:12:51.451Z,22.30
2018-11-21T03:15:19.970Z,22.50
2018-11-21T03:20:55.648Z,22.53
2018-11-21T03:23:43.434Z,23.30
2018-11-21T03:26:31.627Z,23.07
2018-11-21T03:29:19.601Z,22.10
2018-11-21T03:32:07.415Z,21.63
2018-11-21T03:34:55.168Z,23.77
2018-11-21T03:40:36.292Z,22.10
2018-11-21T03:43:04.860Z,24.47
2018-11-21T03:45:33.476Z,22.70
2018-11-21T03:48:21.388Z,23.27
2018-11-21T03:50:49.976Z,23.97
2018-11-21T03:53:18.517Z,24.07
2018-11-21T03:56:06.384Z,24.77
2018-11-21T03:58:54.132Z,23.10
2018-11-21T04:01:42.019Z,21.57
2018-11-21T04:04:29.940Z,25.90
2018-11-21T04:06:59.096Z,24.60
2018-11-21T04:09:46.908Z,24.10
2018-11-21T04:12:15.482Z,24.43
2018-11-21T04:17:51.459Z,23.83
2018-11-21T04:20:39.183Z,24.57
2018-11-21T04:23:27.006Z,23.23
2018-11-21T04:26:16.202Z,25.03
2018-11-21T04:29:04.183Z,23.37
2018-11-21T04:31:52.171Z,24.83
2018-11-21T04:34:40.149Z,23.57
2018-11-21T04:37:28.076Z,23.63
2018-11-21T04:39:56.513Z,23.97
2018-11-21T04:42:45.977Z,24.23
2018-11-21T04:45:34.177Z,25.53
2018-11-21T04:48:22.152Z,25.87
2018-11-21T04:51:09.967Z,24.20
2018-11-21T04:53:58.232Z,24.50
2018-11-21T04:56:46.346Z,24.70
2018-11-21T04:59:34.196Z,24.47
2018-11-21T05:02:22.227Z,24.00
2018-11-21T05:05:11.203Z,23.07
2018-11-21T05:07:59.155Z,25.00
2018-11-21T05:10:47.241Z,24.97
2018-11-21T05:13:35.329Z,25.67
2018-11-21T05:16:23.231Z,24.57
2018-11-21T05:19:11.129Z,23.77
2018-11-21T05:21:58.986Z,25.07
2018-11-21T05:24:27.476Z,24.47
2018-11-21T05:27:15.242Z,25.57
2018-11-21T05:30:03.151Z,22.80
2018-11-21T05:32:31.554Z,24.77
2018-11-21T05:35:00.144Z,24.87
2018-11-21T05:37:48.767Z,22.97
2018-11-21T05:40:36.477Z,23.33
2018-11-21T05:43:24.201Z,24.33
2018-11-21T05:46:11.994Z,24.80
2018-11-21T05:49:00.217Z,23.80
2018-11-21T05:51:48.120Z,23.33
2018-11-21T05:54:36.030Z,24.10
2018-11-21T05:57:23.719Z,23.40
2018-11-21T06:00:15.713Z,24.97
2018-11-21T06:02:44.444Z,25.20
2018-11-21T06:05:13.131Z,25.47
2018-11-21T06:08:01.189Z,24.30
2018-11-21T06:10:29.785Z,24.90
2018-11-21T06:13:17.913Z,25.37
2018-11-21T06:15:46.660Z,24.37
2018-11-21T06:19:05.084Z,26.30
2018-11-21T06:21:33.450Z,25.90
2018-11-21T06:24:21.573Z,24.00
2018-11-21T06:27:09.601Z,24.87
2018-11-21T06:29:57.459Z,24.23
2018-11-21T06:32:45.398Z,26.03
2018-11-21T06:35:33.410Z,27.13
2018-11-21T06:38:21.246Z,24.10
2018-11-21T06:41:09.226Z,25.60
2018-11-21T06:43:56.956Z,25.67
2018-11-21T06:46:25.988Z,25.17
2018-11-21T06:49:14.329Z,26.47
2018-11-21T06:52:02.150Z,25.87
2018-11-21T06:54:50.072Z,25.37
2018-11-21T06:57:40.795Z,24.47
2018-11-21T07:00:28.684Z,23.83
2018-11-21T07:02:57.297Z,25.40
2018-11-21T07:05:25.586Z,27.87
2018-11-21T07:08:14.175Z,26.07
2018-11-21T07:11:01.978Z,25.37
2018-11-21T07:13:49.852Z,25.57
2018-11-21T07:16:18.251Z,26.13
2018-11-21T07:19:06.779Z,25.50
2018-11-21T07:21:55.140Z,25.57
2018-11-21T07:24:26.348Z,25.50
2018-11-21T07:27:11.493Z,26.00
2018-11-21T07:29:59.701Z,24.13
2018-11-21T07:32:48.352Z,26.20
2018-11-21T07:38:43.096Z,25.50
2018-11-21T07:41:30.980Z,25.30
2018-11-21T07:47:08.340Z,25.03
2018-11-21T07:49:56.205Z,27.00
2018-11-21T07:52:44.147Z,25.80
2018-11-21T07:55:31.914Z,26.27
2018-11-21T08:01:34.555Z,24.90
2018-11-21T08:04:41.634Z,25.60
2018-11-21T08:07:29.226Z,26.70
2018-11-21T08:10:16.677Z,26.73
2018-11-21T08:13:17.316Z,25.87
2018-11-21T08:19:19.847Z,27.30
2018-11-21T08:22:20.073Z,26.43
2018-11-21T08:25:08.105Z,25.30
2018-11-21T08:28:15.168Z,26.43
2018-11-21T08:31:02.822Z,26.23
2018-11-21T08:33:50.682Z,26.60
2018-11-21T08:36:38.402Z,26.00
2018-11-21T08:39:26.113Z,25.27
2018-11-21T08:45:08.022Z,27.90
2018-11-21T08:47:55.807Z,27.97
2018-11-21T08:50:43.586Z,25.10
2018-11-21T08:53:31.573Z,25.47
2018-11-21T08:56:19.517Z,27.53
2018-11-21T08:59:07.491Z,25.73
2018-11-21T09:01:55.246Z,26.63
2018-11-21T09:04:43.105Z,26.47
2018-11-21T09:07:11.485Z,26.67
2018-11-21T09:09:39.884Z,25.80
2018-11-21T09:12:08.824Z,24.97
2018-11-21T09:14:56.361Z,26.50
2018-11-21T09:17:45.012Z,26.00
2018-11-21T09:20:14.726Z,25.30
2018-11-21T09:23:02.507Z,27.00
2018-11-21T09:25:31.072Z,26.17
2018-11-21T09:28:18.878Z,26.73
2018-11-21T09:31:06.812Z,25.47
2018-11-21T09:33:54.484Z,27.27
2018-11-21T09:36:42.307Z,25.70
2018-11-21T09:39:30.607Z,25.27
2018-11-21T09:42:27.332Z,25.83
2018-11-21T09:44:57.993Z,24.23
2018-11-21T09:47:26.466Z,27.20
2018-11-21T09:49:57.736Z,25.93
2018-11-21T09:53:05.969Z,26.43
2018-11-21T09:55:54.480Z,24.77
2018-11-21T09:58:42.520Z,25.83
2018-11-21T10:01:49.749Z,25.80
2018-11-21T10:04:39.080Z,25.57
2018-11-21T10:07:06.201Z,24.97
2018-11-21T10:09:39.214Z,24.93
2018-11-21T10:12:27.401Z,25.90
2018-11-21T10:15:16.987Z,25.03
2018-11-21T10:17:46.182Z,24.07
2018-11-21T10:20:14.818Z,26.77
2018-11-21T10:23:02.794Z,26.87
2018-11-21T10:25:31.387Z,25.27
2018-11-21T10:28:19.651Z,26.30
2018-11-21T10:31:07.450Z,27.23
2018-11-21T10:33:36.183Z,24.93
2018-11-21T10:36:24.281Z,26.13
2018-11-21T10:39:12.629Z,26.40
2018-11-21T10:42:00.439Z,27.90
2018-11-21T10:44:29.492Z,26.60
2018-11-21T10:47:17.615Z,26.13
2018-11-21T10:52:41.724Z,25.40
2018-11-21T10:55:30.070Z,26.50
2018-11-21T10:58:18.405Z,26.90
2018-11-21T11:01:25.497Z,27.43
2018-11-21T11:04:18.487Z,27.63
2018-11-21T11:07:26.201Z,25.47
2018-11-21T11:10:33.276Z,24.97
2018-11-21T11:13:40.526Z,24.83
2018-11-21T11:16:28.452Z,26.33
2018-11-21T11:19:19.466Z,25.70
2018-11-21T11:22:26.566Z,27.30
2018-11-21T11:25:34.123Z,27.00
2018-11-21T11:28:41.700Z,27.40
2018-11-21T11:31:48.966Z,25.97
2018-11-21T11:34:56.510Z,27.13
2018-11-21T11:38:11.608Z,25.60
2018-11-21T11:41:16.801Z,27.20
2018-11-21T11:44:24.015Z,27.07
2018-11-21T11:47:35.701Z,26.13
2018-11-21T11:50:42.799Z,27.03
2018-11-21T11:53:33.228Z,27.37
2018-11-21T11:56:40.823Z,27.07
2018-11-21T11:59:48.389Z,25.90
2018-11-21T12:02:36.618Z,28.10
2018-11-21T12:05:43.820Z,26.07
2018-11-21T12:08:25.261Z,26.07
2018-11-21T12:11:32.571Z,26.00
2018-11-21T12:14:42.918Z,25.57
2018-11-21T12:17:50.581Z,26.03
2018-11-21T12:20:57.837Z,25.20
2018-11-21T12:24:26.704Z,25.00
2018-11-21T12:27:35.064Z,25.43
2018-11-21T12:30:42.103Z,25.27
2018-11-21T12:33:49.298Z,26.30
2018-11-21T12:36:56.759Z,26.23
2018-11-21T12:40:04.373Z,26.70
2018-11-21T12:43:13.609Z,26.20
2018-11-21T12:46:20.927Z,25.23
2018-11-21T12:49:28.393Z,25.17
2018-11-21T12:55:30.899Z,25.57
2018-11-21T12:58:38.404Z,25.87
2018-11-21T13:01:45.498Z,26.17
2018-11-21T13:07:55.456Z,26.30
2018-11-21T13:11:02.514Z,23.63
2018-11-21T13:14:09.763Z,24.80
2018-11-21T13:17:17.062Z,26.03
2018-11-21T13:20:24.159Z,25.37
2018-11-21T13:23:31.686Z,25.30
2018-11-21T13:26:38.750Z,25.37
2018-11-21T13:29:45.836Z,25.87
2018-11-21T13:32:53.091Z,24.67
2018-11-21T13:36:00.303Z,25.20
2018-11-21T13:39:07.858Z,25.27
2018-11-21T13:42:16.409Z,25.27
2018-11-21T13:45:08.888Z,27.50
2018-11-21T13:48:16.528Z,25.00
2018-11-21T13:51:33.496Z,25.13
2018-11-21T14:03:37.226Z,25.93
2018-11-21T14:06:33.148Z,25.23
2018-11-21T14:09:44.088Z,25.30
2018-11-21T14:12:31.006Z,24.43
2018-11-21T14:18:10.076Z,24.37
2018-11-21T14:20:58.802Z,26.53
2018-11-21T14:23:47.578Z,25.17
2018-11-21T14:30:02.903Z,24.80
2018-11-21T14:32:51.273Z,24.87
2018-11-21T14:35:39.477Z,24.23
2018-11-21T14:41:26.795Z,24.23
2018-11-21T14:44:14.977Z,24.60
2018-11-21T14:47:22.725Z,25.23
2018-11-21T14:50:33.332Z,25.27
2018-11-21T14:53:22.160Z,24.80
2018-11-21T14:56:10.417Z,24.03
2018-11-21T15:02:06.063Z,24.90
2018-11-21T15:04:59.483Z,23.63
2018-11-21T15:07:48.924Z,24.20
2018-11-21T15:10:37.779Z,24.13
2018-11-21T15:13:26.117Z,25.27
2018-11-21T15:19:23.854Z,24.33
2018-11-21T15:22:12.166Z,24.30
2018-11-21T15:25:00.263Z,24.57
2018-11-21T15:27:49.189Z,23.60
2018-11-21T15:33:44.742Z,23.77
2018-11-21T15:39:40.577Z,23.93
2018-11-21T15:42:47.125Z,24.67
2018-11-21T15:45:21.740Z,24.87
2018-11-21T15:48:09.874Z,23.90
2018-11-21T15:50:55.706Z,25.13
2018-11-21T15:53:44.005Z,24.20
2018-11-21T15:56:51.216Z,23.97
2018-11-21T15:59:39.922Z,23.73
2018-11-21T16:02:28.119Z,24.70
2018-11-21T16:05:17.017Z,24.97
2018-11-21T16:07:54.021Z,24.10
2018-11-21T16:10:46.289Z,24.70
2018-11-21T16:13:15.479Z,24.17
2018-11-21T16:16:04.015Z,26.43
2018-11-21T16:18:33.561Z,24.97
2018-11-21T16:21:21.751Z,25.57
2018-11-21T16:24:09.905Z,25.00
2018-11-21T16:26:58.237Z,23.70
2018-11-21T16:29:46.667Z,23.90
2018-11-21T16:32:34.614Z,24.70
2018-11-21T16:35:23.233Z,25.20
2018-11-21T16:38:18.898Z,27.07
2018-11-21T16:41:06.914Z,26.10
2018-11-21T16:43:54.801Z,25.40
2018-11-21T16:46:27.098Z,23.83
2018-11-21T16:49:15.603Z,23.97
2018-11-21T16:52:04.265Z,25.53
2018-11-21T16:54:52.351Z,24.43
2018-11-21T16:57:40.395Z,24.67
2018-11-21T17:00:29.991Z,25.10
2018-11-21T17:06:13.217Z,24.60
2018-11-21T17:09:01.064Z,24.27
2018-11-21T17:11:30.337Z,24.80
2018-11-21T17:14:21.999Z,25.47
2018-11-21T17:17:27.427Z,24.93
2018-11-21T17:20:37.564Z,24.67
2018-11-21T17:23:25.669Z,25.37
2018-11-21T17:29:08.898Z,24.67
2018-11-21T17:35:03.560Z,25.03
2018-11-21T17:37:56.182Z,26.27
2018-11-21T17:40:44.596Z,24.77
2018-11-21T17:43:32.796Z,24.97
2018-11-21T17:46:22.110Z,24.57
2018-11-21T17:49:09.824Z,26.13
2018-11-21T17:51:58.001Z,27.60
2018-11-21T17:54:46.309Z,26.07
2018-11-21T17:57:34.937Z,25.83
2018-11-21T18:00:24.788Z,26.57
2018-11-21T18:09:16.098Z,25.43
2018-11-21T18:12:07.936Z,26.50
2018-11-21T18:14:39.488Z,26.60
2018-11-21T18:17:27.490Z,26.90
2018-11-21T18:20:16.867Z,26.20
2018-11-21T18:23:04.777Z,26.73
2018-11-21T18:25:52.890Z,26.87
2018-11-21T18:28:22.082Z,27.47
2018-11-21T18:31:17.840Z,26.57
2018-11-21T18:34:06.308Z,27.50
2018-11-21T18:36:54.441Z,27.43
2018-11-21T18:39:45.548Z,27.10
2018-11-21T18:45:30.240Z,27.37
2018-11-21T18:50:54.549Z,28.53
2018-11-21T18:53:41.220Z,27.27
2018-11-21T18:56:30.926Z,26.87
2018-11-21T18:59:21.371Z,29.13
2018-11-21T19:02:09.413Z,28.33
2018-11-21T19:04:57.255Z,28.13
2018-11-21T19:07:29.398Z,30.97
2018-11-21T19:10:27.700Z,29.77
2018-11-21T19:12:59.132Z,30.00
2018-11-21T19:15:44.706Z,30.03
2018-11-21T19:18:34.583Z,28.70
2018-11-21T19:21:22.821Z,30.93
2018-11-21T19:23:52.262Z,30.50
2018-11-21T19:26:40.058Z,30.83
2018-11-21T19:29:33.074Z,32.17
2018-11-21T19:32:20.918Z,30.70
2018-11-21T19:35:06.177Z,31.07
2018-11-21T19:38:22.038Z,31.07
2018-11-21T19:41:09.871Z,31.10
2018-11-21T19:43:58.805Z,31.73
2018-11-21T19:46:46.914Z,32.13
2018-11-21T19:49:19.324Z,31.20
2018-11-21T19:52:07.419Z,31.80
2018-11-21T19:54:55.462Z,30.53
2018-11-21T19:57:44.923Z,31.23
2018-11-21T20:00:33.976Z,30.23
2018-11-21T20:03:21.840Z,30.00
2018-11-21T20:06:10.427Z,28.87
2018-11-21T20:08:58.330Z,30.37
2018-11-21T20:11:47.565Z,30.00
2018-11-21T20:14:35.496Z,30.03
2018-11-21T20:17:23.306Z,30.80
2018-11-21T20:20:13.291Z,30.47
2018-11-21T20:23:06.468Z,30.17
2018-11-21T20:25:49.488Z,31.27
2018-11-21T20:28:37.634Z,31.30
2018-11-21T20:31:31.057Z,31.07
2018-11-21T20:34:19.249Z,29.43
2018-11-21T20:37:07.360Z,30.40
2018-11-21T20:39:55.196Z,28.37
2018-11-21T20:42:43.951Z,29.73
2018-11-21T20:45:16.548Z,30.70
2018-11-21T20:48:04.791Z,30.23
2018-11-21T20:50:52.840Z,29.07
2018-11-21T20:53:40.797Z,29.03
2018-11-21T20:56:29.001Z,31.03
2018-11-21T20:59:17.247Z,29.97
2018-11-21T21:02:05.542Z,29.43
2018-11-21T21:04:53.377Z,31.80
2018-11-21T21:07:22.628Z,32.00
2018-11-21T21:10:11.727Z,30.03
2018-11-21T21:12:59.716Z,30.13
2018-11-21T21:15:47.649Z,29.33
2018-11-21T21:18:35.612Z,30.30
2018-11-21T21:21:24.167Z,30.97
2018-11-21T21:24:12.300Z,30.17
2018-11-21T21:27:00.117Z,32.13
2018-11-21T21:29:48.364Z,32.10
2018-11-21T21:32:37.074Z,31.47
2018-11-21T21:38:45.409Z,32.50
2018-11-21T21:41:33.487Z,31.30
2018-11-21T21:47:47.284Z,31.60
2018-11-21T21:50:17.596Z,31.70
2018-11-21T21:52:46.216Z,30.87
2018-11-21T21:55:34.251Z,31.70
2018-11-21T21:58:02.928Z,30.43
2018-11-21T22:00:51.008Z,31.63
2018-11-21T22:03:20.462Z,34.90
2018-11-21T22:06:08.670Z,31.90
2018-11-21T22:08:56.602Z,30.73
2018-11-21T22:11:45.367Z,31.90
2018-11-21T22:14:33.385Z,29.60
2018-11-21T22:17:21.326Z,30.00
2018-11-21T22:19:49.780Z,29.97
2018-11-21T22:22:18.313Z,30.13
2018-11-21T22:25:06.436Z,29.37
2018-11-21T22:27:54.563Z,30.07
2018-11-21T22:30:42.507Z,30.00
2018-11-21T22:33:30.557Z,29.37
2018-11-21T22:36:18.760Z,29.73
2018-11-21T22:39:08.270Z,30.23
2018-11-21T22:41:56.369Z,29.17
2018-11-21T22:44:44.846Z,29.50
2018-11-21T22:47:32.902Z,29.87
2018-11-21T22:50:22.593Z,30.97
2018-11-21T22:52:51.373Z,31.13
2018-11-21T22:55:39.196Z,29.77
2018-11-21T22:58:07.853Z,30.30
2018-11-21T23:00:55.993Z,30.17
2018-11-21T23:06:39.628Z,29.70
2018-11-21T23:12:05.230Z,28.97
2018-11-21T23:14:53.415Z,30.73
2018-11-21T23:17:22.184Z,29.43
2018-11-21T23:20:11.981Z,30.67
2018-11-21T23:22:59.892Z,29.67
2018-11-21T23:25:48.022Z,31.60
2018-11-21T23:28:35.973Z,31.20
2018-11-21T23:31:24.268Z,28.97
2018-11-21T23:33:52.606Z,29.40
2018-11-21T23:36:41.019Z,29.33
2018-11-21T23:39:10.458Z,30.10
2018-11-21T23:41:58.335Z,30.40
2018-11-21T23:44:47.161Z,30.20
2018-11-21T23:47:35.065Z,30.87
2018-11-21T23:50:22.760Z,30.40
2018-11-21T23:53:10.850Z,29.17
2018-11-21T23:55:58.946Z,30.83
2018-11-21T23:58:47.298Z,31.33
